createdAt,value
2018-02-19T00:01:05.115Z,20.17
2018-02-19T00:03:32.631Z,20.05
2018-02-19T00:06:00.164Z,20.35
2018-02-19T00:08:27.663Z,19.98
2018-02-19T00:10:55.203Z,18.98
2018-02-19T00:13:22.721Z,20.30
2018-02-19T00:15:50.229Z,18.67
2018-02-19T00:18:17.754Z,18.60
2018-02-19T00:20:46.024Z,18.90
2018-02-19T00:23:14.338Z,16.52
2018-02-19T00:25:41.864Z,18.33
2018-02-19T00:28:10.141Z,18.40
2018-02-19T00:30:38.445Z,16.87
2018-02-19T00:33:05.973Z,16.75
2018-02-19T00:35:34.271Z,16.62
2018-02-19T00:38:01.777Z,17.20
2018-02-19T00:40:29.288Z,16.23
2018-02-19T00:42:56.922Z,14.85
2018-02-19T00:45:24.455Z,15.80
2018-02-19T00:47:52.004Z,15.98
2018-02-19T00:50:20.286Z,16.20
2018-02-19T00:52:47.797Z,17.33
2018-02-19T00:55:16.102Z,17.15
2018-02-19T00:57:43.632Z,17.73
2018-02-19T01:00:11.929Z,17.98
2018-02-19T01:02:39.518Z,16.08
2018-02-19T01:05:07.023Z,16.02
2018-02-19T01:07:35.345Z,18.15
2018-02-19T01:10:02.853Z,17.30
2018-02-19T01:12:30.384Z,18.45
2018-02-19T01:14:57.901Z,17.17
2018-02-19T01:17:26.176Z,19.52
2018-02-19T01:19:54.488Z,18.60
2018-02-19T01:22:22.017Z,16.87
2018-02-19T01:24:49.566Z,17.45
2018-02-19T01:27:17.845Z,16.37
2018-02-19T01:29:46.127Z,16.77
2018-02-19T01:32:15.020Z,17.40
2018-02-19T01:34:43.298Z,17.40
2018-02-19T01:37:10.841Z,18.25
2018-02-19T01:39:39.116Z,17.83
2018-02-19T01:42:06.644Z,15.95
2018-02-19T01:44:34.175Z,15.32
2018-02-19T01:47:01.706Z,16.08
2018-02-19T01:49:29.983Z,17.70
2018-02-19T01:51:57.493Z,17.55
2018-02-19T01:54:25.873Z,17.58
2018-02-19T01:56:53.386Z,17.12
2018-02-19T01:59:21.676Z,16.05
2018-02-19T02:01:49.175Z,17.62
2018-02-19T02:04:16.696Z,17.90
2018-02-19T02:06:44.445Z,16.40
2018-02-19T02:09:12.720Z,18.00
2018-02-19T02:11:41.005Z,16.65
2018-02-19T02:14:09.285Z,16.87
2018-02-19T02:16:36.813Z,16.45
2018-02-19T02:19:04.323Z,17.08
2018-02-19T02:21:31.856Z,19.23
2018-02-19T02:24:00.134Z,19.40
2018-02-19T02:26:28.412Z,17.27
2018-02-19T02:28:56.706Z,17.65
2018-02-19T02:31:24.209Z,18.83
2018-02-19T02:33:51.726Z,16.35
2018-02-19T02:36:19.243Z,17.73
2018-02-19T02:38:47.049Z,17.25
2018-02-19T02:41:14.561Z,17.50
2018-02-19T02:43:42.068Z,16.48
2018-02-19T02:46:09.593Z,17.35
2018-02-19T02:48:37.106Z,17.73
2018-02-19T02:51:04.639Z,15.60
2018-02-19T02:53:32.144Z,16.75
2018-02-19T02:55:59.668Z,16.80
2018-02-19T02:58:27.565Z,17.23
2018-02-19T03:00:55.072Z,17.00
2018-02-19T03:03:23.377Z,17.92
2018-02-19T03:05:50.884Z,16.27
2018-02-19T03:08:18.388Z,16.80
2018-02-19T03:10:45.921Z,16.67
2018-02-19T03:13:13.445Z,16.87
2018-02-19T03:15:41.008Z,17.10
2018-02-19T03:18:08.524Z,17.85
2018-02-19T03:20:36.794Z,17.02
2018-02-19T03:23:05.077Z,18.25
2018-02-19T03:25:32.577Z,17.95
2018-02-19T03:28:00.092Z,16.92
2018-02-19T03:30:28.366Z,17.95
2018-02-19T03:32:56.666Z,17.37
2018-02-19T03:35:24.172Z,17.45
2018-02-19T03:37:51.703Z,16.80
2018-02-19T03:40:19.228Z,16.25
2018-02-19T03:42:47.509Z,16.83
2018-02-19T03:45:15.812Z,17.65
2018-02-19T03:47:43.318Z,17.70
2018-02-19T03:50:10.862Z,18.87
2018-02-19T03:52:38.373Z,18.87
2018-02-19T03:55:05.885Z,17.87
2018-02-19T03:57:33.428Z,17.98
2018-02-19T04:00:00.932Z,16.58
2018-02-19T04:02:28.473Z,16.25
2018-02-19T04:04:55.976Z,16.60
2018-02-19T04:07:23.517Z,17.80
2018-02-19T04:09:51.785Z,18.45
2018-02-19T04:12:20.056Z,17.45
2018-02-19T04:14:47.571Z,18.80
2018-02-19T04:17:15.096Z,17.60
2018-02-19T04:19:43.384Z,17.80
2018-02-19T04:22:10.892Z,16.60
2018-02-19T04:24:38.403Z,17.95
2018-02-19T04:27:05.908Z,15.18
2018-02-19T04:29:33.415Z,16.15
2018-02-19T04:32:00.949Z,15.60
2018-02-19T04:34:28.456Z,15.63
2018-02-19T04:36:55.976Z,15.52
2018-02-19T04:39:24.248Z,15.40
2018-02-19T04:41:51.983Z,15.38
2018-02-19T04:44:21.121Z,13.32
2018-02-19T04:46:49.881Z,14.80
2018-02-19T04:49:17.403Z,14.05
2018-02-19T04:51:44.951Z,15.55
2018-02-19T04:54:12.464Z,14.60
2018-02-19T04:56:39.964Z,17.52
2018-02-19T04:59:07.469Z,15.88
2018-02-19T05:01:34.994Z,15.27
2018-02-19T05:04:02.499Z,14.27
2018-02-19T05:06:30.021Z,15.00
2018-02-19T05:08:57.693Z,13.35
2018-02-19T05:11:25.216Z,15.90
2018-02-19T05:13:53.496Z,15.57
2018-02-19T05:16:21.759Z,15.20
2018-02-19T05:18:50.063Z,15.30
2018-02-19T05:21:17.567Z,15.48
2018-02-19T05:23:45.071Z,17.20
2018-02-19T05:26:12.602Z,15.02
2018-02-19T05:28:40.097Z,14.40
2018-02-19T05:31:07.631Z,16.70
2018-02-19T05:33:35.923Z,14.23
2018-02-19T05:36:03.429Z,14.13
2018-02-19T05:38:30.957Z,15.43
2018-02-19T05:40:58.463Z,14.23
2018-02-19T05:43:25.997Z,16.23
2018-02-19T05:45:53.493Z,17.62
2018-02-19T05:48:21.009Z,15.82
2018-02-19T05:50:48.537Z,15.13
2018-02-19T05:53:16.812Z,16.52
2018-02-19T05:55:45.102Z,16.37
2018-02-19T05:58:12.608Z,15.93
2018-02-19T06:00:40.133Z,15.80
2018-02-19T06:03:07.662Z,16.15
2018-02-19T06:05:35.973Z,16.17
2018-02-19T06:08:03.479Z,15.95
2018-02-19T06:10:30.988Z,16.73
2018-02-19T06:12:58.641Z,16.48
2018-02-19T06:15:26.150Z,16.27
2018-02-19T06:17:53.686Z,14.98
2018-02-19T06:20:21.960Z,16.45
2018-02-19T06:22:49.492Z,16.62
2018-02-19T06:25:17.755Z,15.82
2018-02-19T06:27:46.064Z,14.18
2018-02-19T06:30:13.589Z,16.77
2018-02-19T06:32:41.873Z,18.05
2018-02-19T06:35:10.166Z,17.35
2018-02-19T06:37:37.683Z,15.90
2018-02-19T06:40:05.209Z,15.10
2018-02-19T06:42:32.709Z,15.25
2018-02-19T06:45:00.236Z,15.95
2018-02-19T06:47:27.741Z,14.40
2018-02-19T06:49:56.040Z,15.05
2018-02-19T06:52:23.540Z,15.20
2018-02-19T06:54:51.058Z,13.35
2018-02-19T06:57:18.576Z,23.23
2018-02-19T06:59:46.081Z,14.90
2018-02-19T07:02:13.611Z,15.00
2018-02-19T07:04:41.115Z,14.35
2018-02-19T07:07:08.637Z,16.67
2018-02-19T07:09:36.923Z,15.38
2018-02-19T07:12:05.316Z,16.70
2018-02-19T07:14:32.829Z,16.55
2018-02-19T07:17:00.339Z,17.23
2018-02-19T07:19:27.863Z,15.98
2018-02-19T07:21:55.375Z,16.90
2018-02-19T07:24:22.906Z,15.90
2018-02-19T07:26:50.501Z,17.67
2018-02-19T07:29:19.055Z,16.17
2018-02-19T07:31:46.571Z,17.52
2018-02-19T07:34:14.116Z,17.00
2018-02-19T07:36:41.617Z,17.12
2018-02-19T07:39:09.906Z,16.20
2018-02-19T07:41:38.205Z,15.80
2018-02-19T07:44:05.717Z,16.62
2018-02-19T07:46:33.299Z,16.65
2018-02-19T07:49:01.561Z,18.95
2018-02-19T07:51:29.105Z,19.08
2018-02-19T07:53:56.624Z,18.60
2018-02-19T07:56:24.166Z,16.30
2018-02-19T07:58:52.436Z,18.30
2018-02-19T08:01:20.711Z,16.62
2018-02-19T08:03:49.006Z,15.57
2018-02-19T08:06:16.529Z,16.80
2018-02-19T08:08:44.106Z,18.45
2018-02-19T08:11:12.396Z,17.20
2018-02-19T08:13:39.918Z,18.05
2018-02-19T08:16:07.420Z,15.85
2018-02-19T08:18:34.958Z,15.65
2018-02-19T08:21:02.498Z,17.60
2018-02-19T08:23:30.002Z,18.08
2018-02-19T08:25:57.521Z,20.05
2018-02-19T08:28:25.034Z,16.37
2018-02-19T08:30:52.608Z,16.85
2018-02-19T08:33:20.106Z,18.95
2018-02-19T08:35:47.613Z,16.12
2018-02-19T08:38:15.132Z,19.20
2018-02-19T08:40:43.413Z,17.77
2018-02-19T08:43:10.940Z,17.17
2018-02-19T08:45:38.453Z,16.35
2018-02-19T08:48:05.988Z,16.98
2018-02-19T08:50:33.497Z,18.25
2018-02-19T08:53:00.996Z,18.25
2018-02-19T08:55:28.522Z,15.80
2018-02-19T08:57:56.788Z,17.27
2018-02-19T09:00:24.335Z,17.05
2018-02-19T09:02:51.913Z,17.12
2018-02-19T09:05:19.440Z,16.85
2018-02-19T09:07:47.729Z,17.85
2018-02-19T09:10:15.246Z,17.25
2018-02-19T09:12:42.761Z,15.32
2018-02-19T09:15:10.263Z,14.25
2018-02-19T09:17:37.784Z,17.15
2018-02-19T09:20:06.054Z,15.90
2018-02-19T09:22:33.627Z,16.77
2018-02-19T09:25:01.138Z,16.80
2018-02-19T09:27:28.642Z,16.80
2018-02-19T09:29:56.170Z,15.65
2018-02-19T09:32:24.447Z,16.65
2018-02-19T09:34:52.739Z,15.38
2018-02-19T09:37:20.240Z,17.73
2018-02-19T09:39:47.768Z,17.02
2018-02-19T09:42:15.286Z,17.48
2018-02-19T09:44:42.817Z,15.13
2018-02-19T09:47:10.331Z,15.98
2018-02-19T09:49:38.601Z,15.95
2018-02-19T09:52:06.890Z,17.12
2018-02-19T09:54:34.393Z,17.50
2018-02-19T09:57:01.955Z,19.73
2018-02-19T09:59:29.461Z,16.87
2018-02-19T10:01:57.755Z,15.70
2018-02-19T10:04:25.265Z,17.60
2018-02-19T10:06:52.789Z,17.40
2018-02-19T10:09:20.303Z,17.87
2018-02-19T10:11:48.589Z,17.00
2018-02-19T10:14:16.893Z,15.85
2018-02-19T10:16:44.455Z,17.30
2018-02-19T10:19:11.977Z,17.15
2018-02-19T10:21:40.285Z,17.95
2018-02-19T10:24:07.928Z,18.17
2018-02-19T10:26:36.196Z,18.20
2018-02-19T10:29:04.499Z,17.70
2018-02-19T10:31:32.026Z,17.20
2018-02-19T10:33:59.542Z,17.48
2018-02-19T10:36:27.303Z,19.00
2018-02-19T10:38:54.808Z,17.37
2018-02-19T10:41:22.333Z,17.77
2018-02-19T10:43:49.921Z,17.15
2018-02-19T10:46:17.454Z,15.43
2018-02-19T10:48:44.965Z,14.60
2018-02-19T10:51:13.299Z,13.75
2018-02-19T10:53:40.800Z,17.27
2018-02-19T10:56:09.066Z,16.17
2018-02-19T10:58:36.594Z,15.57
2018-02-19T11:01:04.085Z,14.48
2018-02-19T11:03:31.609Z,13.90
2018-02-19T11:05:59.681Z,15.45
2018-02-19T11:08:27.204Z,16.52
2018-02-19T11:10:55.485Z,15.15
2018-02-19T11:13:23.029Z,15.15
2018-02-19T11:15:50.533Z,16.23
2018-02-19T11:18:18.052Z,16.25
2018-02-19T11:20:46.341Z,14.52
2018-02-19T11:23:13.845Z,14.38
2018-02-19T11:25:41.363Z,14.93
2018-02-19T11:28:08.960Z,15.65
2018-02-19T11:30:36.481Z,18.23
2018-02-19T11:33:04.744Z,17.35
2018-02-19T11:35:33.034Z,18.10
2018-02-19T11:38:01.480Z,18.25
2018-02-19T11:40:28.989Z,16.67
2018-02-19T11:42:56.514Z,15.52
2018-02-19T11:45:24.014Z,15.90
2018-02-19T11:47:51.532Z,17.00
2018-02-19T11:50:19.045Z,16.17
2018-02-19T11:52:46.572Z,15.02
2018-02-19T11:55:14.108Z,16.98
2018-02-19T11:57:41.606Z,16.15
2018-02-19T12:00:09.145Z,15.50
2018-02-19T12:02:37.417Z,15.43
2018-02-19T12:05:04.952Z,15.75
2018-02-19T12:07:32.483Z,15.48
2018-02-19T12:10:00.022Z,17.08
2018-02-19T12:12:28.396Z,15.60
2018-02-19T12:14:55.921Z,14.85
2018-02-19T12:17:23.454Z,15.18
2018-02-19T12:19:50.960Z,16.73
2018-02-19T12:22:19.256Z,17.08
2018-02-19T12:24:46.772Z,15.02
2018-02-19T12:27:14.300Z,16.33
2018-02-19T12:29:41.805Z,15.35
2018-02-19T12:32:10.093Z,15.90
2018-02-19T12:34:38.401Z,14.40
2018-02-19T12:37:05.943Z,15.43
2018-02-19T12:39:33.492Z,16.48
2018-02-19T12:42:01.779Z,15.55
2018-02-19T12:44:29.308Z,17.65
2018-02-19T12:46:56.814Z,16.40
2018-02-19T12:49:24.336Z,15.35
2018-02-19T12:51:51.855Z,16.52
2018-02-19T12:54:19.357Z,16.12
2018-02-19T12:56:47.661Z,14.60
2018-02-19T12:59:15.175Z,15.20
2018-02-19T13:01:42.711Z,15.90
2018-02-19T13:04:10.231Z,14.45
2018-02-19T13:06:37.769Z,16.25
2018-02-19T13:09:06.048Z,16.45
2018-02-19T13:11:33.576Z,15.48
2018-02-19T13:14:01.082Z,17.80
2018-02-19T13:16:29.366Z,17.58
2018-02-19T13:18:57.677Z,15.93
2018-02-19T13:21:25.204Z,16.85
2018-02-19T13:23:53.508Z,15.23
2018-02-19T13:26:21.022Z,16.40
2018-02-19T13:28:49.318Z,17.23
2018-02-19T13:31:17.581Z,17.05
2018-02-19T13:33:45.874Z,17.27
2018-02-19T13:36:13.381Z,16.50
2018-02-19T13:38:40.933Z,16.85
2018-02-19T13:41:08.429Z,16.00
2018-02-19T13:43:37.344Z,15.15
2018-02-19T13:46:05.634Z,15.30
2018-02-19T13:48:33.136Z,16.05
2018-02-19T13:51:00.664Z,15.75
2018-02-19T13:53:28.172Z,16.83
2018-02-19T13:55:55.715Z,16.20
2018-02-19T13:58:23.227Z,14.48
2018-02-19T14:00:50.762Z,16.33
2018-02-19T14:03:19.040Z,16.12
2018-02-19T14:05:47.301Z,16.25
2018-02-19T14:08:14.849Z,16.90
2018-02-19T14:10:43.347Z,14.80
2018-02-19T14:13:10.891Z,17.58
2018-02-19T14:15:38.387Z,17.98
2018-02-19T14:18:06.739Z,17.23
2018-02-19T14:20:34.202Z,16.42
2018-02-19T14:23:01.728Z,17.52
2018-02-19T14:25:29.225Z,18.10
2018-02-19T14:27:56.730Z,16.80
2018-02-19T14:30:24.272Z,18.27
2018-02-19T14:32:52.537Z,17.70
2018-02-19T14:35:20.838Z,19.90
2018-02-19T14:37:48.360Z,17.25
2018-02-19T14:40:15.878Z,18.75
2018-02-19T14:42:43.386Z,17.52
2018-02-19T14:45:10.908Z,17.83
2018-02-19T14:47:38.414Z,18.17
2018-02-19T14:50:06.697Z,16.40
2018-02-19T14:52:35.743Z,18.62
2018-02-19T14:55:03.254Z,18.80
2018-02-19T14:57:31.561Z,17.08
2018-02-19T14:59:59.740Z,17.52
2018-02-19T15:02:27.305Z,17.23
2018-02-19T15:04:54.816Z,20.40
2018-02-19T15:07:23.100Z,19.12
2018-02-19T15:09:52.385Z,17.85
2018-02-19T15:12:20.682Z,17.92
2018-02-19T15:14:48.997Z,17.10
2018-02-19T15:17:16.501Z,18.20
2018-02-19T15:19:44.049Z,15.98
2018-02-19T15:22:11.554Z,17.27
2018-02-19T15:24:39.073Z,17.90
2018-02-19T15:27:06.596Z,17.45
2018-02-19T15:29:34.126Z,18.85
2018-02-19T15:32:01.647Z,16.73
2018-02-19T15:34:29.167Z,18.05
2018-02-19T15:36:56.698Z,17.70
2018-02-19T15:39:24.973Z,17.37
2018-02-19T15:41:53.268Z,17.27
2018-02-19T15:44:20.777Z,17.05
2018-02-19T15:46:48.325Z,17.35
2018-02-19T15:49:15.840Z,18.70
2018-02-19T15:51:43.371Z,17.40
2018-02-19T15:54:11.692Z,18.15
2018-02-19T15:56:39.196Z,18.70
2018-02-19T15:59:06.725Z,18.20
2018-02-19T16:01:34.259Z,18.85
2018-02-19T16:04:01.798Z,18.30
2018-02-19T16:06:30.090Z,15.98
2018-02-19T16:08:58.386Z,16.77
2018-02-19T16:11:25.898Z,16.27
2018-02-19T16:13:53.429Z,17.42
2018-02-19T16:16:20.941Z,17.40
2018-02-19T16:18:49.216Z,16.83
2018-02-19T16:21:16.789Z,16.87
2018-02-19T16:23:44.314Z,16.27
2018-02-19T16:26:11.842Z,15.90
2018-02-19T16:28:39.361Z,16.65
2018-02-19T16:31:07.661Z,17.58
2018-02-19T16:33:35.422Z,17.02
2018-02-19T16:36:02.946Z,16.73
2018-02-19T16:38:31.225Z,19.00
2018-02-19T16:40:58.745Z,18.00
2018-02-19T16:43:26.272Z,19.77
2018-02-19T16:45:53.780Z,19.87
2018-02-19T16:48:21.320Z,20.33
2018-02-19T16:50:48.822Z,19.83
2018-02-19T16:53:17.120Z,21.70
2018-02-19T16:55:44.652Z,21.48
2018-02-19T16:58:12.178Z,21.10
2018-02-19T17:00:39.701Z,21.85
2018-02-19T17:03:07.201Z,20.88
2018-02-19T17:05:34.731Z,21.80
2018-02-19T17:08:02.238Z,20.05
2018-02-19T17:10:29.760Z,21.42
2018-02-19T17:12:57.264Z,20.50
2018-02-19T17:15:24.795Z,19.50
2018-02-19T17:17:52.305Z,19.83
2018-02-19T17:20:20.611Z,20.70
2018-02-19T17:22:48.138Z,21.50
2018-02-19T17:25:16.427Z,23.12
2018-02-19T17:27:44.716Z,22.52
2018-02-19T17:30:12.235Z,22.02
2018-02-19T17:32:39.751Z,20.75
2018-02-19T17:35:07.900Z,21.23
2018-02-19T17:37:35.433Z,22.15
2018-02-19T17:40:02.943Z,21.35
2018-02-19T17:42:30.477Z,22.15
2018-02-19T17:44:57.997Z,21.35
2018-02-19T17:47:25.508Z,20.88
2018-02-19T17:49:53.040Z,20.02
2018-02-19T17:52:21.332Z,20.88
2018-02-19T17:54:49.633Z,22.23
2018-02-19T17:57:17.154Z,21.50
2018-02-19T17:59:45.459Z,21.98
2018-02-19T18:02:12.983Z,20.60
2018-02-19T18:04:40.518Z,20.05
2018-02-19T18:07:08.015Z,21.58
2018-02-19T18:09:36.291Z,20.98
2018-02-19T18:12:04.625Z,23.35
2018-02-19T18:14:32.325Z,20.15
2018-02-19T18:16:59.854Z,23.58
2018-02-19T18:19:27.373Z,22.60
2018-02-19T18:21:55.671Z,21.20
2018-02-19T18:24:23.188Z,21.27
2018-02-19T18:26:50.755Z,21.33
2018-02-19T18:29:19.030Z,24.20
2018-02-19T18:31:49.254Z,23.73
2018-02-19T18:34:17.539Z,21.15
2018-02-19T18:36:45.831Z,21.90
2018-02-19T18:39:13.363Z,21.12
2018-02-19T18:41:40.873Z,22.55
2018-02-19T18:44:08.420Z,22.45
2018-02-19T18:46:35.934Z,21.42
2018-02-19T18:49:03.483Z,22.58
2018-02-19T18:51:30.988Z,22.92
2018-02-19T18:53:58.548Z,23.15
2018-02-19T18:56:26.131Z,22.95
2018-02-19T18:58:53.659Z,23.35
2018-02-19T19:01:21.957Z,23.12
2018-02-19T19:03:49.475Z,23.65
2018-02-19T19:06:17.010Z,20.52
2018-02-19T19:09:00.412Z,22.20
2018-02-19T19:11:27.944Z,24.17
2018-02-19T19:13:56.217Z,23.05
2018-02-19T19:16:24.517Z,21.12
2018-02-19T19:18:52.053Z,22.13
2018-02-19T19:21:20.396Z,23.33
2018-02-19T19:23:47.889Z,22.85
2018-02-19T19:26:16.165Z,22.83
2018-02-19T19:28:44.680Z,23.48
2018-02-19T19:31:12.194Z,21.85
2018-02-19T19:33:39.723Z,23.38
2018-02-19T19:36:07.997Z,22.10
2018-02-19T19:38:35.564Z,22.75
2018-02-19T19:41:03.069Z,24.63
2018-02-19T19:43:31.378Z,23.92
2018-02-19T19:45:58.898Z,22.05
2018-02-19T19:48:27.193Z,22.50
2018-02-19T19:50:55.491Z,23.38
2018-02-19T19:53:23.002Z,23.00
2018-02-19T19:55:50.526Z,23.55
2018-02-19T19:58:18.057Z,23.52
2018-02-19T20:00:46.350Z,25.33
2018-02-19T20:03:13.865Z,23.25
2018-02-19T20:05:41.375Z,23.20
2018-02-19T20:08:08.912Z,23.60
2018-02-19T20:10:37.194Z,23.90
2018-02-19T20:13:05.484Z,23.83
2018-02-19T20:15:32.992Z,23.15
2018-02-19T20:18:01.410Z,24.25
2018-02-19T20:20:28.925Z,24.83
2018-02-19T20:22:56.457Z,23.23
2018-02-19T20:25:23.982Z,24.02
2018-02-19T20:27:52.245Z,25.30
2018-02-19T20:30:20.597Z,23.27
2018-02-19T20:32:48.106Z,26.27
2018-02-19T20:35:15.651Z,25.40
2018-02-19T20:37:43.199Z,24.25
2018-02-19T20:40:11.076Z,24.73
2018-02-19T20:42:39.394Z,24.00
2018-02-19T20:45:06.900Z,25.08
2018-02-19T20:47:34.459Z,24.52
2018-02-19T20:50:01.979Z,24.48
2018-02-19T20:52:29.526Z,23.40
2018-02-19T20:54:57.053Z,23.40
2018-02-19T20:57:25.369Z,24.80
2018-02-19T20:59:52.925Z,25.08
2018-02-19T21:02:20.475Z,25.37
2018-02-19T21:04:48.044Z,24.45
2018-02-19T21:07:15.554Z,25.00
2018-02-19T21:09:43.097Z,24.00
2018-02-19T21:12:10.613Z,22.70
2018-02-19T21:14:38.191Z,23.20
2018-02-19T21:17:05.728Z,25.88
2018-02-19T21:19:33.310Z,23.58
2018-02-19T21:22:00.853Z,25.35
2018-02-19T21:24:28.377Z,24.23
2018-02-19T21:26:55.910Z,22.40
2018-02-19T21:29:23.424Z,22.48
2018-02-19T21:31:50.969Z,23.92
2018-02-19T21:34:19.249Z,24.12
2018-02-19T21:36:47.576Z,23.87
2018-02-19T21:39:15.788Z,22.87
2018-02-19T21:41:43.325Z,23.48
2018-02-19T21:44:10.900Z,24.27
2018-02-19T21:46:38.408Z,23.10
2018-02-19T21:49:05.952Z,23.10
2018-02-19T21:51:34.229Z,24.05
2018-02-19T21:54:02.513Z,25.27
2018-02-19T21:56:31.193Z,24.65
2018-02-19T21:58:59.494Z,22.45
2018-02-19T22:01:32.723Z,24.25
2018-02-19T22:04:06.226Z,23.17
2018-02-19T22:06:36.731Z,22.98
2018-02-19T22:09:09.127Z,22.80
2018-02-19T22:11:36.677Z,23.05
2018-02-19T22:14:04.217Z,25.30
2018-02-19T22:16:31.801Z,22.33
2018-02-19T22:18:59.411Z,23.35
2018-02-19T22:21:29.732Z,22.87
2018-02-19T22:23:57.280Z,22.25
2018-02-19T22:26:24.812Z,23.10
2018-02-19T22:28:53.391Z,24.27
2018-02-19T22:31:20.954Z,21.67
2018-02-19T22:33:51.173Z,23.62
2018-02-19T22:36:24.694Z,22.27
2018-02-19T22:38:53.042Z,22.98
2018-02-19T22:41:23.498Z,22.17
2018-02-19T22:43:54.155Z,22.52
2018-02-19T22:46:24.675Z,23.48
2018-02-19T22:48:53.528Z,21.83
2018-02-19T22:51:21.988Z,25.55
2018-02-19T22:53:49.527Z,24.35
2018-02-19T22:56:17.852Z,24.98
2018-02-19T22:58:46.451Z,23.48
2018-02-19T23:01:14.030Z,22.92
2018-02-19T23:03:41.602Z,23.42
2018-02-19T23:06:09.161Z,24.25
2018-02-19T23:08:36.692Z,23.50
2018-02-19T23:11:04.274Z,23.67
2018-02-19T23:13:31.792Z,24.90
2018-02-19T23:15:59.367Z,23.65
2018-02-19T23:18:26.964Z,21.77
2018-02-19T23:21:00.854Z,25.25
2018-02-19T23:23:31.422Z,23.90
2018-02-19T23:25:59.739Z,25.02
2018-02-19T23:28:30.491Z,24.27
2018-02-19T23:30:58.026Z,24.70
2018-02-19T23:33:25.567Z,27.02
2018-02-19T23:35:54.081Z,23.27
2018-02-19T23:38:22.524Z,23.87
2018-02-19T23:40:53.079Z,26.73
2018-02-19T23:43:26.793Z,26.05
2018-02-19T23:45:54.434Z,25.12
2018-02-19T23:48:21.991Z,24.15
2018-02-19T23:50:49.553Z,24.02
2018-02-19T23:53:17.121Z,22.70
2018-02-19T23:55:44.673Z,25.88
2018-02-19T23:58:12.222Z,24.42
